createdAt,value
2022-10-05T00:00:47.183Z,7.00
2022-10-05T00:03:14.533Z,6.60
2022-10-05T00:05:41.948Z,8.32
2022-10-05T00:08:29.444Z,7.32
2022-10-05T00:10:56.766Z,5.95
2022-10-05T00:13:25.924Z,7.45
2022-10-05T00:16:19.747Z,8.97
2022-10-05T00:18:48.411Z,6.35
2022-10-05T00:21:23.092Z,7.47
2022-10-05T00:23:51.848Z,7.38
2022-10-05T00:26:26.111Z,6.43
2022-10-05T00:28:53.942Z,7.53
2022-10-05T00:31:25.955Z,7.65
2022-10-05T00:33:55.118Z,6.07
2022-10-05T00:36:22.402Z,8.27
2022-10-05T00:38:50.059Z,5.70
2022-10-05T00:41:17.339Z,6.38
2022-10-05T00:43:49.105Z,7.28
2022-10-05T00:46:24.393Z,5.43
2022-10-05T00:49:06.505Z,9.02
2022-10-05T00:51:37.868Z,8.07
2022-10-05T00:54:05.098Z,7.05
2022-10-05T00:56:50.883Z,7.25
2022-10-05T00:59:37.027Z,9.57
2022-10-05T01:02:09.576Z,6.45
2022-10-05T01:04:43.082Z,8.55
2022-10-05T01:07:13.570Z,7.68
2022-10-05T01:09:59.737Z,7.03
2022-10-05T01:12:37.452Z,10.45
2022-10-05T01:15:22.077Z,7.88
2022-10-05T01:17:52.765Z,11.27
2022-10-05T01:20:32.341Z,9.30
2022-10-05T01:23:08.925Z,10.55
2022-10-05T01:25:36.264Z,11.18
2022-10-05T01:28:12.818Z,10.13
2022-10-05T01:30:57.815Z,8.65
2022-10-05T01:34:00.613Z,7.28
2022-10-05T01:36:27.883Z,7.03
2022-10-05T01:39:04.112Z,8.60
2022-10-05T01:41:35.241Z,6.65
2022-10-05T01:44:11.763Z,8.38
2022-10-05T01:46:39.035Z,8.88
2022-10-05T01:49:06.425Z,7.13
2022-10-05T01:51:42.959Z,8.13
2022-10-05T01:54:13.288Z,7.43
2022-10-05T01:56:44.276Z,7.32
2022-10-05T01:59:19.062Z,9.25
2022-10-05T02:02:09.813Z,6.68
2022-10-05T02:05:02.819Z,10.90
2022-10-05T02:07:38.758Z,10.73
2022-10-05T02:10:15.435Z,7.43
2022-10-05T02:12:43.641Z,9.18
2022-10-05T02:15:16.217Z,8.10
2022-10-05T02:17:46.554Z,7.53
2022-10-05T02:20:23.571Z,9.10
2022-10-05T02:22:58.262Z,8.40
2022-10-05T02:25:37.284Z,10.00
2022-10-05T02:28:28.216Z,10.45
2022-10-05T02:31:08.956Z,7.85
2022-10-05T02:33:36.493Z,6.18
2022-10-05T02:36:26.166Z,8.48
2022-10-05T02:38:53.066Z,5.85
2022-10-05T02:42:02.346Z,7.72
2022-10-05T02:44:45.718Z,5.20
2022-10-05T02:47:21.929Z,6.07
2022-10-05T02:50:01.369Z,7.10
2022-10-05T02:52:39.675Z,6.88
2022-10-05T02:55:48.137Z,5.80
2022-10-05T02:58:25.046Z,5.00
2022-10-05T03:01:08.297Z,6.93
2022-10-05T03:04:00.649Z,4.93
2022-10-05T03:06:32.872Z,5.15
2022-10-05T03:09:10.270Z,6.10
2022-10-05T03:11:49.052Z,7.35
2022-10-05T03:14:39.499Z,8.88
2022-10-05T03:17:25.665Z,4.10
2022-10-05T03:20:12.198Z,5.35
2022-10-05T03:22:53.493Z,5.63
2022-10-05T03:25:41.447Z,4.65
2022-10-05T03:28:37.481Z,4.30
2022-10-05T03:31:13.888Z,5.47
2022-10-05T03:33:43.921Z,8.38
2022-10-05T03:38:46.473Z,6.53
2022-10-05T03:41:21.648Z,5.43
2022-10-05T03:44:16.152Z,4.38
2022-10-05T03:47:10.530Z,7.95
2022-10-05T03:49:52.673Z,5.93
2022-10-05T03:52:25.615Z,8.23
2022-10-05T03:55:00.746Z,4.80
2022-10-05T03:57:31.696Z,5.03
2022-10-05T04:00:06.075Z,1.65
2022-10-05T04:02:58.281Z,6.88
2022-10-05T04:05:41.482Z,4.22
2022-10-05T04:08:18.325Z,5.43
2022-10-05T04:10:52.465Z,4.43
2022-10-05T04:13:26.414Z,3.10
2022-10-05T04:16:14.880Z,4.60
2022-10-05T04:19:15.117Z,5.53
2022-10-05T04:21:56.269Z,5.10
2022-10-05T04:24:49.427Z,6.32
2022-10-05T04:27:39.407Z,4.05
2022-10-05T04:32:59.594Z,5.35
2022-10-05T04:35:50.451Z,5.43
2022-10-05T04:38:24.137Z,13.52
2022-10-05T04:40:54.732Z,5.90
2022-10-05T04:43:37.631Z,4.57
2022-10-05T04:46:29.510Z,6.10
2022-10-05T04:49:23.985Z,7.85
2022-10-05T04:52:29.793Z,10.27
2022-10-05T04:55:22.698Z,7.20
2022-10-05T04:58:02.805Z,4.88
2022-10-05T05:01:14.217Z,5.68
2022-10-05T05:03:59.937Z,5.50
2022-10-05T05:06:41.075Z,4.93
2022-10-05T05:09:24.223Z,8.70
2022-10-05T05:12:09.242Z,7.10
2022-10-05T05:14:44.987Z,4.22
2022-10-05T05:17:33.401Z,7.93
2022-10-05T05:20:28.913Z,4.35
2022-10-05T05:23:05.004Z,7.05
2022-10-05T05:25:45.242Z,7.18
2022-10-05T05:28:14.969Z,7.22
2022-10-05T05:31:09.683Z,5.65
2022-10-05T05:33:56.434Z,4.45
2022-10-05T05:36:36.564Z,9.68
2022-10-05T05:39:15.217Z,4.93
2022-10-05T05:42:17.186Z,3.95
2022-10-05T05:44:52.027Z,9.88
2022-10-05T05:47:35.369Z,5.65
2022-10-05T05:50:20.321Z,6.57
2022-10-05T05:52:52.198Z,4.82
2022-10-05T05:55:30.522Z,5.18
2022-10-05T05:58:02.392Z,6.65
2022-10-05T06:00:42.912Z,5.40
2022-10-05T06:03:39.502Z,8.00
2022-10-05T06:06:16.133Z,4.55
2022-10-05T06:08:57.035Z,4.63
2022-10-05T06:11:27.092Z,4.95
2022-10-05T06:13:58.274Z,4.32
2022-10-05T06:16:38.717Z,6.88
2022-10-05T06:19:17.791Z,5.75
2022-10-05T06:22:14.047Z,5.30
2022-10-05T06:25:04.142Z,9.57
2022-10-05T06:28:03.801Z,8.02
2022-10-05T06:30:43.734Z,3.58
2022-10-05T06:33:22.998Z,8.13
2022-10-05T06:35:52.629Z,5.57
2022-10-05T06:38:32.242Z,3.53
2022-10-05T06:41:17.149Z,4.55
2022-10-05T06:44:29.050Z,6.60
2022-10-05T06:46:56.005Z,7.32
2022-10-05T06:49:28.413Z,9.27
2022-10-05T06:52:13.829Z,14.32
2022-10-05T06:54:59.448Z,8.93
2022-10-05T06:57:47.209Z,5.30
2022-10-05T07:00:21.328Z,3.70
2022-10-05T07:02:58.513Z,2.88
2022-10-05T07:05:31.577Z,7.10
2022-10-05T07:08:03.060Z,4.55
2022-10-05T07:11:25.090Z,4.65
2022-10-05T07:14:00.283Z,10.60
2022-10-05T07:16:42.206Z,3.13
2022-10-05T07:19:23.920Z,5.65
2022-10-05T07:22:08.829Z,4.40
2022-10-05T07:24:50.097Z,3.28
2022-10-05T07:27:21.175Z,8.43
2022-10-05T07:30:00.528Z,6.20
2022-10-05T07:32:37.148Z,3.70
2022-10-05T07:35:49.633Z,4.13
2022-10-05T07:38:39.587Z,6.05
2022-10-05T07:44:03.310Z,4.03
2022-10-05T07:46:50.243Z,6.50
2022-10-05T07:49:22.142Z,5.88
2022-10-05T07:51:59.081Z,5.22
2022-10-05T07:54:52.951Z,5.03
2022-10-05T07:57:43.929Z,4.93
2022-10-05T08:00:19.168Z,6.35
2022-10-05T08:03:02.917Z,3.63
2022-10-05T08:05:32.806Z,4.50
2022-10-05T08:08:18.202Z,4.47
2022-10-05T08:11:02.610Z,6.28
2022-10-05T08:13:42.476Z,6.70
2022-10-05T08:19:14.413Z,4.07
2022-10-05T08:22:07.064Z,8.55
2022-10-05T08:24:59.456Z,7.68
2022-10-05T08:27:36.075Z,6.68
2022-10-05T08:30:10.993Z,8.60
2022-10-05T08:32:50.515Z,6.60
2022-10-05T08:35:34.949Z,7.20
2022-10-05T08:38:09.386Z,6.10
2022-10-05T08:41:00.822Z,10.55
2022-10-05T08:44:12.367Z,9.55
2022-10-05T08:46:54.413Z,7.85
2022-10-05T08:49:58.729Z,12.77
2022-10-05T08:52:29.033Z,5.80
2022-10-05T08:55:28.867Z,7.13
2022-10-05T08:58:04.618Z,4.00
2022-10-05T09:01:06.094Z,10.07
2022-10-05T09:03:47.980Z,6.68
2022-10-05T09:06:36.112Z,5.95
2022-10-05T09:09:34.012Z,8.75
2022-10-05T09:12:09.716Z,5.13
2022-10-05T09:15:25.465Z,6.32
2022-10-05T09:18:30.613Z,6.43
2022-10-05T09:21:36.174Z,7.95
2022-10-05T09:24:15.549Z,8.27
2022-10-05T09:27:07.870Z,6.45
2022-10-05T09:30:11.532Z,6.90
2022-10-05T09:33:15.916Z,4.70
2022-10-05T09:36:04.500Z,6.35
2022-10-05T09:38:54.425Z,5.43
2022-10-05T09:44:40.506Z,6.27
2022-10-05T09:47:48.859Z,6.55
2022-10-05T09:50:41.031Z,8.57
2022-10-05T09:53:40.635Z,6.18
2022-10-05T09:56:09.471Z,9.40
2022-10-05T09:58:57.763Z,8.50
2022-10-05T10:01:33.607Z,6.13
2022-10-05T10:04:20.459Z,9.32
2022-10-05T10:07:14.368Z,7.03
2022-10-05T10:10:21.901Z,8.20
2022-10-05T10:13:00.918Z,10.18
2022-10-05T10:15:59.628Z,6.43
2022-10-05T10:18:35.681Z,5.40
2022-10-05T10:21:21.031Z,5.93
2022-10-05T10:24:10.550Z,9.40
2022-10-05T10:27:07.876Z,6.15
2022-10-05T10:29:53.659Z,5.07
2022-10-05T10:33:00.922Z,6.45
2022-10-05T10:35:36.048Z,5.88
2022-10-05T10:38:31.075Z,10.27
2022-10-05T10:41:19.432Z,6.53
2022-10-05T10:44:13.088Z,12.60
2022-10-05T10:46:58.518Z,7.78
2022-10-05T10:49:55.840Z,14.93
2022-10-05T10:52:53.921Z,8.52
2022-10-05T10:55:45.475Z,9.32
2022-10-05T10:58:43.926Z,11.55
2022-10-05T11:01:34.876Z,8.40
2022-10-05T11:04:23.661Z,8.90
2022-10-05T11:07:28.221Z,5.60
2022-10-05T11:10:15.431Z,7.93
2022-10-05T11:13:12.614Z,8.35
2022-10-05T11:16:01.192Z,17.80
2022-10-05T11:19:07.103Z,8.90
2022-10-05T11:21:55.381Z,7.20
2022-10-05T11:24:43.733Z,6.68
2022-10-05T11:28:04.792Z,9.60
2022-10-05T11:31:03.934Z,8.77
2022-10-05T11:34:08.070Z,12.37
2022-10-05T11:37:02.236Z,9.68
2022-10-05T11:39:33.468Z,9.32
2022-10-05T11:42:18.878Z,9.77
2022-10-05T11:45:11.700Z,6.85
2022-10-05T11:48:00.837Z,6.90
2022-10-05T11:50:51.751Z,7.65
2022-10-05T11:53:40.784Z,10.02
2022-10-05T11:56:33.545Z,8.67
2022-10-05T11:59:34.596Z,8.70
2022-10-05T12:02:01.473Z,6.38
2022-10-05T12:04:37.477Z,6.07
2022-10-05T12:07:10.143Z,9.20
2022-10-05T12:10:17.561Z,9.13
2022-10-05T12:12:52.965Z,12.23
2022-10-05T12:15:24.178Z,8.50
2022-10-05T12:18:20.006Z,10.70
2022-10-05T12:20:58.451Z,10.85
2022-10-05T12:24:03.741Z,9.18
2022-10-05T12:26:57.955Z,10.02
2022-10-05T12:29:51.074Z,9.07
2022-10-05T12:32:29.495Z,4.95
2022-10-05T12:35:47.296Z,8.48
2022-10-05T12:38:18.586Z,5.35
2022-10-05T12:40:51.703Z,7.13
2022-10-05T12:43:33.857Z,7.88
2022-10-05T12:46:21.675Z,12.52
2022-10-05T12:49:13.009Z,10.50
2022-10-05T12:51:57.986Z,10.15
2022-10-05T12:54:55.043Z,7.97
2022-10-05T12:57:32.125Z,5.93
2022-10-05T13:00:23.004Z,6.55
2022-10-05T13:02:58.958Z,5.25
2022-10-05T13:05:46.602Z,6.32
2022-10-05T13:08:25.540Z,10.80
2022-10-05T13:11:15.266Z,10.63
2022-10-05T13:16:39.689Z,10.35
2022-10-05T13:19:15.407Z,10.32
2022-10-05T13:22:14.341Z,7.43
2022-10-05T13:25:02.621Z,8.23
2022-10-05T13:27:33.469Z,12.38
2022-10-05T13:30:16.697Z,13.52
2022-10-05T13:32:58.490Z,10.30
2022-10-05T13:35:31.270Z,11.55
2022-10-05T13:38:24.338Z,8.55
2022-10-05T13:40:54.226Z,6.32
2022-10-05T13:43:46.004Z,13.73
2022-10-05T13:46:48.703Z,10.50
2022-10-05T13:49:23.857Z,9.70
2022-10-05T13:52:26.336Z,7.65
2022-10-05T13:55:11.251Z,9.80
2022-10-05T13:57:57.838Z,10.90
2022-10-05T14:00:27.118Z,11.63
2022-10-05T14:02:57.019Z,11.93
2022-10-05T14:05:28.981Z,13.10
2022-10-05T14:08:17.350Z,9.25
2022-10-05T14:10:46.425Z,10.32
2022-10-05T14:13:31.435Z,9.25
2022-10-05T14:16:14.091Z,15.90
2022-10-05T14:18:52.607Z,10.77
2022-10-05T14:21:30.017Z,15.05
2022-10-05T14:24:32.135Z,9.48
2022-10-05T14:27:21.230Z,10.90
2022-10-05T14:30:18.067Z,11.35
2022-10-05T14:32:56.317Z,10.45
2022-10-05T14:35:26.263Z,9.50
2022-10-05T14:40:37.082Z,10.13
2022-10-05T14:43:16.281Z,13.10
2022-10-05T14:45:58.127Z,5.87
2022-10-05T14:48:28.219Z,7.82
2022-10-05T14:51:05.748Z,9.52
2022-10-05T14:53:56.547Z,10.85
2022-10-05T14:57:29.287Z,14.25
2022-10-05T15:00:02.420Z,14.20
2022-10-05T15:03:04.637Z,13.10
2022-10-05T15:05:52.997Z,11.05
2022-10-05T15:08:45.250Z,8.90
2022-10-05T15:11:27.082Z,14.52
2022-10-05T15:13:55.503Z,14.70
2022-10-05T15:16:33.085Z,14.43
2022-10-05T15:19:14.352Z,14.35
2022-10-05T15:22:01.368Z,10.48
2022-10-05T15:24:51.802Z,8.68
2022-10-05T15:27:22.167Z,11.70
2022-10-05T15:30:09.834Z,12.57
2022-10-05T15:32:57.950Z,11.50
2022-10-05T15:35:43.516Z,11.68
2022-10-05T15:38:30.119Z,7.25
2022-10-05T15:41:10.014Z,12.35
2022-10-05T15:46:26.090Z,14.63
2022-10-05T15:49:08.618Z,13.95
2022-10-05T15:51:41.090Z,13.07
2022-10-05T15:54:42.754Z,17.38
2022-10-05T15:57:42.907Z,20.15
2022-10-05T16:00:20.159Z,24.38
2022-10-05T16:02:52.159Z,17.42
2022-10-05T16:05:57.485Z,18.00
2022-10-05T16:08:51.359Z,17.20
2022-10-05T16:11:28.269Z,16.02
2022-10-05T16:14:13.550Z,12.20
2022-10-05T16:16:58.961Z,16.55
2022-10-05T16:19:25.936Z,15.52
2022-10-05T16:22:05.845Z,11.23
2022-10-05T16:27:34.246Z,10.43
2022-10-05T16:30:08.742Z,12.30
2022-10-05T16:32:50.037Z,10.50
2022-10-05T16:35:31.935Z,9.95
2022-10-05T16:38:21.073Z,11.43
2022-10-05T16:41:14.854Z,9.90
2022-10-05T16:43:42.169Z,9.82
2022-10-05T16:46:45.914Z,13.65
2022-10-05T16:49:13.187Z,14.43
2022-10-05T16:51:51.737Z,13.77
2022-10-05T16:54:24.632Z,11.55
2022-10-05T16:57:05.638Z,12.55
2022-10-05T16:59:48.942Z,11.85
2022-10-05T17:02:35.101Z,9.23
2022-10-05T17:05:21.343Z,9.38
2022-10-05T17:08:39.549Z,9.13
2022-10-05T17:11:30.390Z,11.20
2022-10-05T17:14:36.855Z,12.82
2022-10-05T17:17:12.409Z,10.68
2022-10-05T17:19:42.388Z,8.88
2022-10-05T17:25:10.274Z,15.88
2022-10-05T17:27:57.161Z,8.70
2022-10-05T17:30:49.839Z,11.27
2022-10-05T17:33:29.766Z,18.33
2022-10-05T17:38:30.585Z,16.38
2022-10-05T17:41:00.187Z,22.55
2022-10-05T17:43:30.814Z,22.23
2022-10-05T17:46:09.788Z,23.55
2022-10-05T17:48:42.839Z,28.67
2022-10-05T17:51:46.537Z,27.05
2022-10-05T17:55:05.127Z,26.88
2022-10-05T17:57:34.093Z,24.08
2022-10-05T18:00:02.574Z,33.55
2022-10-05T18:02:36.333Z,30.15
2022-10-05T18:05:12.506Z,28.55
2022-10-05T18:07:41.616Z,32.78
2022-10-05T18:10:17.147Z,30.17
2022-10-05T18:12:50.846Z,34.35
2022-10-05T18:15:44.817Z,27.75
2022-10-05T18:18:33.313Z,33.03
2022-10-05T18:21:20.469Z,28.77
2022-10-05T18:23:59.261Z,27.92
2022-10-05T18:26:52.073Z,32.63
2022-10-05T18:29:52.874Z,28.25
2022-10-05T18:32:35.782Z,31.75
2022-10-05T18:35:22.478Z,30.27
2022-10-05T18:38:02.390Z,32.72
2022-10-05T18:43:24.495Z,32.13
2022-10-05T18:46:26.435Z,36.92
2022-10-05T18:49:06.857Z,29.48
2022-10-05T18:51:51.684Z,33.47
2022-10-05T18:54:43.354Z,32.45
2022-10-05T18:57:28.931Z,24.65
2022-10-05T19:00:25.592Z,28.33
2022-10-05T19:03:22.901Z,26.13
2022-10-05T19:06:01.732Z,22.33
2022-10-05T19:08:30.174Z,25.83
2022-10-05T19:11:26.259Z,27.17
2022-10-05T19:14:29.336Z,20.80
2022-10-05T19:17:09.636Z,26.42
2022-10-05T19:20:01.715Z,28.17
2022-10-05T19:22:28.614Z,28.90
2022-10-05T19:24:58.688Z,27.10
2022-10-05T19:27:46.496Z,24.50
2022-10-05T19:30:21.327Z,25.75
2022-10-05T19:33:10.766Z,22.83
2022-10-05T19:35:58.406Z,24.98
2022-10-05T19:38:56.320Z,25.33
2022-10-05T19:41:38.191Z,27.80
2022-10-05T19:44:26.767Z,27.17
2022-10-05T19:47:06.640Z,31.00
2022-10-05T19:52:52.981Z,36.28
2022-10-05T19:55:25.123Z,31.05
2022-10-05T19:58:02.454Z,28.52
2022-10-05T20:00:33.987Z,24.60
2022-10-05T20:03:19.435Z,28.48
2022-10-05T20:05:48.092Z,28.20
2022-10-05T20:08:19.763Z,30.75
2022-10-05T20:11:22.581Z,33.40
2022-10-05T20:13:53.109Z,26.58
2022-10-05T20:17:05.942Z,34.42
2022-10-05T20:19:52.436Z,46.28
2022-10-05T20:22:29.808Z,66.00
2022-10-05T20:25:06.389Z,63.53
2022-10-05T20:27:49.676Z,64.43
2022-10-05T20:30:21.780Z,58.60
2022-10-05T20:32:59.714Z,65.40
2022-10-05T20:35:30.595Z,52.17
2022-10-05T20:37:59.801Z,41.63
2022-10-05T20:40:29.192Z,36.30
2022-10-05T20:42:56.796Z,38.42
2022-10-05T20:45:23.801Z,36.05
2022-10-05T20:47:51.015Z,34.97
2022-10-05T20:50:18.467Z,35.85
2022-10-05T20:52:45.404Z,34.22
2022-10-05T20:55:13.032Z,28.80
2022-10-05T20:57:43.757Z,29.25
2022-10-05T21:00:13.151Z,26.05
2022-10-05T21:02:40.148Z,31.30
2022-10-05T21:05:07.836Z,27.65
2022-10-05T21:07:35.272Z,29.27
2022-10-05T21:10:03.848Z,21.55
2022-10-05T21:12:31.113Z,26.95
2022-10-05T21:15:01.862Z,19.35
2022-10-05T21:17:28.770Z,19.85
2022-10-05T21:19:56.019Z,18.02
2022-10-05T21:22:23.505Z,21.00
2022-10-05T21:24:50.835Z,21.60
2022-10-05T21:27:18.223Z,17.73
2022-10-05T21:29:45.483Z,18.15
2022-10-05T21:32:12.754Z,15.88
2022-10-05T21:34:40.531Z,15.55
2022-10-05T21:37:08.621Z,15.60
2022-10-05T21:39:36.777Z,18.42
2022-10-05T21:42:04.593Z,14.63
2022-10-05T21:44:31.914Z,13.43
2022-10-05T21:46:59.268Z,16.25
2022-10-05T21:49:27.189Z,14.82
2022-10-05T21:51:54.829Z,16.00
2022-10-05T21:54:23.999Z,14.90
2022-10-05T21:56:52.686Z,12.85
2022-10-05T21:59:21.117Z,14.73
2022-10-05T22:01:48.504Z,14.32
2022-10-05T22:04:16.077Z,17.50
2022-10-05T22:06:43.381Z,12.52
2022-10-05T22:09:11.223Z,15.07
2022-10-05T22:11:38.639Z,12.63
2022-10-05T22:14:05.977Z,14.50
2022-10-05T22:16:34.742Z,15.77
2022-10-05T22:19:05.966Z,16.35
2022-10-05T22:21:38.079Z,10.80
2022-10-05T22:24:05.532Z,19.58
2022-10-05T22:26:33.204Z,12.93
2022-10-05T22:29:01.907Z,13.25
2022-10-05T22:31:30.500Z,15.27
2022-10-05T22:33:57.887Z,13.10
2022-10-05T22:36:25.265Z,13.23
2022-10-05T22:38:52.531Z,16.40
2022-10-05T22:41:19.839Z,12.43
2022-10-05T22:43:50.886Z,8.73
2022-10-05T22:46:18.643Z,16.08
2022-10-05T22:48:45.658Z,10.40
2022-10-05T22:51:12.599Z,16.63
2022-10-05T22:53:39.669Z,11.32
2022-10-05T22:56:13.876Z,12.35
2022-10-05T22:58:42.261Z,18.10
2022-10-05T23:01:11.480Z,10.90
2022-10-05T23:03:38.976Z,9.82
2022-10-05T23:06:09.524Z,15.15
2022-10-05T23:08:37.780Z,13.68
2022-10-05T23:11:16.687Z,11.90
2022-10-05T23:13:44.546Z,10.05
2022-10-05T23:16:13.139Z,14.88
2022-10-05T23:18:41.731Z,14.85
2022-10-05T23:21:09.862Z,12.65
2022-10-05T23:23:41.225Z,15.25
2022-10-05T23:26:09.514Z,13.65
2022-10-05T23:28:38.479Z,13.38
2022-10-05T23:31:07.764Z,14.88
2022-10-05T23:33:35.426Z,13.77
2022-10-05T23:36:03.952Z,9.93
2022-10-05T23:38:31.413Z,11.27
2022-10-05T23:40:59.879Z,10.57
2022-10-05T23:43:28.221Z,17.50
2022-10-05T23:45:56.384Z,12.93
2022-10-05T23:48:24.906Z,10.18
2022-10-05T23:50:53.838Z,13.77
2022-10-05T23:53:21.966Z,11.43
2022-10-05T23:55:55.897Z,14.35
2022-10-05T23:58:24.134Z,11.77
